sensor_id;sensor_type;location;lat;lon;timestamp;P1;durP1;ratioP1;P2;durP2;ratioP2
30862;SDS011;17573;55.922;37.540;2023-12-20T00:01:35;3.88;;;3.25;;
30862;SDS011;17573;55.922;37.540;2023-12-20T00:04:04;3.40;;;3.10;;
30862;SDS011;17573;55.922;37.540;2023-12-20T00:06:30;3.00;;;2.70;;
30862;SDS011;17573;55.922;37.540;2023-12-20T00:08:56;3.70;;;3.28;;
30862;SDS011;17573;55.922;37.540;2023-12-20T00:11:23;3.38;;;3.15;;
30862;SDS011;17573;55.922;37.540;2023-12-20T00:13:49;5.00;;;2.78;;
30862;SDS011;17573;55.922;37.540;2023-12-20T00:16:15;2.88;;;2.45;;
30862;SDS011;17573;55.922;37.540;2023-12-20T00:18:41;3.58;;;3.33;;
30862;SDS011;17573;55.922;37.540;2023-12-20T00:21:07;7.10;;;3.53;;
30862;SDS011;17573;55.922;37.540;2023-12-20T00:23:32;4.10;;;3.80;;
30862;SDS011;17573;55.922;37.540;2023-12-20T00:25:58;4.85;;;3.75;;
30862;SDS011;17573;55.922;37.540;2023-12-20T00:28:24;5.70;;;2.92;;
30862;SDS011;17573;55.922;37.540;2023-12-20T00:30:50;4.03;;;3.63;;
30862;SDS011;17573;55.922;37.540;2023-12-20T00:33:16;3.67;;;3.38;;
30862;SDS011;17573;55.922;37.540;2023-12-20T00:35:42;8.70;;;3.00;;
30862;SDS011;17573;55.922;37.540;2023-12-20T00:38:08;3.58;;;3.28;;
30862;SDS011;17573;55.922;37.540;2023-12-20T00:40:34;3.60;;;3.30;;
30862;SDS011;17573;55.922;37.540;2023-12-20T00:43:00;3.75;;;3.45;;
30862;SDS011;17573;55.922;37.540;2023-12-20T00:45:25;3.15;;;2.95;;
30862;SDS011;17573;55.922;37.540;2023-12-20T00:47:51;4.70;;;3.28;;
30862;SDS011;17573;55.922;37.540;2023-12-20T00:50:17;5.50;;;3.08;;
30862;SDS011;17573;55.922;37.540;2023-12-20T00:52:43;3.17;;;2.92;;
30862;SDS011;17573;55.922;37.540;2023-12-20T00:55:09;3.50;;;3.20;;
30862;SDS011;17573;55.922;37.540;2023-12-20T00:57:35;3.92;;;3.13;;
30862;SDS011;17573;55.922;37.540;2023-12-20T01:00:00;3.75;;;3.30;;
30862;SDS011;17573;55.922;37.540;2023-12-20T01:02:27;5.80;;;3.33;;
30862;SDS011;17573;55.922;37.540;2023-12-20T01:04:53;3.47;;;2.92;;
30862;SDS011;17573;55.922;37.540;2023-12-20T01:07:18;3.40;;;3.20;;
30862;SDS011;17573;55.922;37.540;2023-12-20T01:09:44;3.15;;;2.90;;
30862;SDS011;17573;55.922;37.540;2023-12-20T01:12:10;10.68;;;3.30;;
30862;SDS011;17573;55.922;37.540;2023-12-20T01:14:36;3.35;;;3.05;;
30862;SDS011;17573;55.922;37.540;2023-12-20T01:17:02;4.35;;;3.33;;
30862;SDS011;17573;55.922;37.540;2023-12-20T01:19:27;4.15;;;3.17;;
30862;SDS011;17573;55.922;37.540;2023-12-20T01:21:54;3.95;;;3.75;;
30862;SDS011;17573;55.922;37.540;2023-12-20T01:24:21;7.32;;;3.63;;
30862;SDS011;17573;55.922;37.540;2023-12-20T01:26:47;6.05;;;3.10;;
30862;SDS011;17573;55.922;37.540;2023-12-20T01:29:12;3.17;;;2.88;;
30862;SDS011;17573;55.922;37.540;2023-12-20T01:31:39;4.25;;;3.05;;
30862;SDS011;17573;55.922;37.540;2023-12-20T01:34:09;5.45;;;3.30;;
30862;SDS011;17573;55.922;37.540;2023-12-20T01:36:34;3.63;;;3.33;;
30862;SDS011;17573;55.922;37.540;2023-12-20T01:39:00;3.28;;;2.97;;
30862;SDS011;17573;55.922;37.540;2023-12-20T01:41:26;5.93;;;3.15;;
30862;SDS011;17573;55.922;37.540;2023-12-20T01:43:52;5.00;;;3.15;;
30862;SDS011;17573;55.922;37.540;2023-12-20T01:46:19;8.75;;;3.40;;
30862;SDS011;17573;55.922;37.540;2023-12-20T01:48:45;3.17;;;2.97;;
30862;SDS011;17573;55.922;37.540;2023-12-20T01:51:11;4.03;;;3.25;;
30862;SDS011;17573;55.922;37.540;2023-12-20T01:53:38;5.47;;;3.65;;
30862;SDS011;17573;55.922;37.540;2023-12-20T01:56:04;6.75;;;3.92;;
30862;SDS011;17573;55.922;37.540;2023-12-20T01:58:30;4.35;;;4.05;;
30862;SDS011;17573;55.922;37.540;2023-12-20T02:00:56;4.20;;;3.58;;
30862;SDS011;17573;55.922;37.540;2023-12-20T02:03:22;4.13;;;3.67;;
30862;SDS011;17573;55.922;37.540;2023-12-20T02:05:49;5.05;;;4.43;;
30862;SDS011;17573;55.922;37.540;2023-12-20T02:08:16;5.25;;;4.80;;
30862;SDS011;17573;55.922;37.540;2023-12-20T02:10:41;10.95;;;4.55;;
30862;SDS011;17573;55.922;37.540;2023-12-20T02:13:08;4.97;;;4.15;;
30862;SDS011;17573;55.922;37.540;2023-12-20T02:15:34;5.28;;;4.35;;
30862;SDS011;17573;55.922;37.540;2023-12-20T02:18:02;6.95;;;4.65;;
30862;SDS011;17573;55.922;37.540;2023-12-20T02:20:49;4.57;;;3.92;;
30862;SDS011;17573;55.922;37.540;2023-12-20T02:23:15;8.52;;;5.47;;
30862;SDS011;17573;55.922;37.540;2023-12-20T02:25:40;4.97;;;4.55;;
30862;SDS011;17573;55.922;37.540;2023-12-20T02:28:06;5.85;;;4.72;;
30862;SDS011;17573;55.922;37.540;2023-12-20T02:30:36;10.18;;;4.03;;
30862;SDS011;17573;55.922;37.540;2023-12-20T02:33:02;7.47;;;3.90;;
30862;SDS011;17573;55.922;37.540;2023-12-20T02:35:29;5.65;;;3.38;;
30862;SDS011;17573;55.922;37.540;2023-12-20T02:37:55;4.68;;;3.95;;
30862;SDS011;17573;55.922;37.540;2023-12-20T02:40:21;4.88;;;4.38;;
30862;SDS011;17573;55.922;37.540;2023-12-20T02:42:47;6.60;;;4.40;;
30862;SDS011;17573;55.922;37.540;2023-12-20T02:45:12;5.30;;;4.53;;
30862;SDS011;17573;55.922;37.540;2023-12-20T02:47:38;6.32;;;4.32;;
30862;SDS011;17573;55.922;37.540;2023-12-20T02:50:04;5.40;;;4.90;;
30862;SDS011;17573;55.922;37.540;2023-12-20T02:52:30;4.68;;;3.55;;
30862;SDS011;17573;55.922;37.540;2023-12-20T02:54:56;4.88;;;4.22;;
30862;SDS011;17573;55.922;37.540;2023-12-20T02:57:22;7.10;;;4.32;;
30862;SDS011;17573;55.922;37.540;2023-12-20T02:59:47;9.90;;;4.75;;
30862;SDS011;17573;55.922;37.540;2023-12-20T03:02:13;10.13;;;4.82;;
30862;SDS011;17573;55.922;37.540;2023-12-20T03:04:38;6.38;;;4.18;;
30862;SDS011;17573;55.922;37.540;2023-12-20T03:07:04;8.18;;;4.82;;
30862;SDS011;17573;55.922;37.540;2023-12-20T03:09:30;3.85;;;3.42;;
30862;SDS011;17573;55.922;37.540;2023-12-20T03:11:55;4.97;;;3.58;;
30862;SDS011;17573;55.922;37.540;2023-12-20T03:14:21;9.77;;;4.32;;
30862;SDS011;17573;55.922;37.540;2023-12-20T03:16:49;4.85;;;3.95;;
30862;SDS011;17573;55.922;37.540;2023-12-20T03:19:16;17.30;;;4.55;;
30862;SDS011;17573;55.922;37.540;2023-12-20T03:21:42;7.28;;;3.83;;
30862;SDS011;17573;55.922;37.540;2023-12-20T03:24:08;4.32;;;3.40;;
30862;SDS011;17573;55.922;37.540;2023-12-20T03:26:34;6.38;;;3.95;;
30862;SDS011;17573;55.922;37.540;2023-12-20T03:28:59;3.90;;;3.50;;
30862;SDS011;17573;55.922;37.540;2023-12-20T03:31:25;9.80;;;4.10;;
30862;SDS011;17573;55.922;37.540;2023-12-20T03:33:51;7.47;;;4.50;;
30862;SDS011;17573;55.922;37.540;2023-12-20T03:36:19;7.75;;;4.32;;
30862;SDS011;17573;55.922;37.540;2023-12-20T03:38:45;7.85;;;4.15;;
30862;SDS011;17573;55.922;37.540;2023-12-20T03:41:11;7.80;;;4.28;;
30862;SDS011;17573;55.922;37.540;2023-12-20T03:43:37;6.57;;;3.17;;
30862;SDS011;17573;55.922;37.540;2023-12-20T03:46:03;4.93;;;3.88;;
30862;SDS011;17573;55.922;37.540;2023-12-20T03:48:30;4.82;;;4.32;;
30862;SDS011;17573;55.922;37.540;2023-12-20T03:50:56;14.13;;;5.35;;
30862;SDS011;17573;55.922;37.540;2023-12-20T03:53:22;5.25;;;3.85;;
30862;SDS011;17573;55.922;37.540;2023-12-20T03:55:48;10.25;;;5.60;;
30862;SDS011;17573;55.922;37.540;2023-12-20T03:58:14;14.27;;;4.10;;
30862;SDS011;17573;55.922;37.540;2023-12-20T04:00:40;7.15;;;5.20;;
30862;SDS011;17573;55.922;37.540;2023-12-20T04:03:06;12.02;;;5.30;;
30862;SDS011;17573;55.922;37.540;2023-12-20T04:05:32;4.75;;;3.95;;
30862;SDS011;17573;55.922;37.540;2023-12-20T04:07:59;15.75;;;4.65;;
30862;SDS011;17573;55.922;37.540;2023-12-20T04:10:26;4.95;;;4.00;;
30862;SDS011;17573;55.922;37.540;2023-12-20T04:12:53;6.45;;;4.28;;
30862;SDS011;17573;55.922;37.540;2023-12-20T04:15:20;4.13;;;3.80;;
30862;SDS011;17573;55.922;37.540;2023-12-20T04:17:46;7.30;;;4.88;;
30862;SDS011;17573;55.922;37.540;2023-12-20T04:20:12;6.13;;;4.35;;
30862;SDS011;17573;55.922;37.540;2023-12-20T04:22:38;7.88;;;4.15;;
30862;SDS011;17573;55.922;37.540;2023-12-20T04:25:03;4.35;;;3.90;;
30862;SDS011;17573;55.922;37.540;2023-12-20T04:27:29;6.35;;;5.00;;
30862;SDS011;17573;55.922;37.540;2023-12-20T04:29:55;8.90;;;4.07;;
30862;SDS011;17573;55.922;37.540;2023-12-20T04:32:21;10.13;;;4.78;;
30862;SDS011;17573;55.922;37.540;2023-12-20T04:34:47;7.03;;;4.57;;
30862;SDS011;17573;55.922;37.540;2023-12-20T04:37:13;6.53;;;4.63;;
30862;SDS011;17573;55.922;37.540;2023-12-20T04:39:39;7.57;;;4.80;;
30862;SDS011;17573;55.922;37.540;2023-12-20T04:42:07;13.05;;;4.53;;
30862;SDS011;17573;55.922;37.540;2023-12-20T04:44:32;4.28;;;3.95;;
30862;SDS011;17573;55.922;37.540;2023-12-20T04:46:58;4.68;;;4.28;;
30862;SDS011;17573;55.922;37.540;2023-12-20T04:49:24;6.45;;;4.22;;
30862;SDS011;17573;55.922;37.540;2023-12-20T04:51:50;4.10;;;3.70;;
30862;SDS011;17573;55.922;37.540;2023-12-20T04:54:16;6.05;;;4.03;;
30862;SDS011;17573;55.922;37.540;2023-12-20T04:56:42;7.32;;;3.67;;
30862;SDS011;17573;55.922;37.540;2023-12-20T04:59:08;7.50;;;3.90;;
30862;SDS011;17573;55.922;37.540;2023-12-20T05:01:33;4.78;;;3.45;;
30862;SDS011;17573;55.922;37.540;2023-12-20T05:03:59;7.32;;;4.28;;
30862;SDS011;17573;55.922;37.540;2023-12-20T05:06:25;4.63;;;4.05;;
30862;SDS011;17573;55.922;37.540;2023-12-20T05:08:51;8.70;;;4.43;;
30862;SDS011;17573;55.922;37.540;2023-12-20T05:11:17;4.30;;;3.88;;
30862;SDS011;17573;55.922;37.540;2023-12-20T05:13:42;6.10;;;4.00;;
30862;SDS011;17573;55.922;37.540;2023-12-20T05:16:08;3.47;;;3.17;;
30862;SDS011;17573;55.922;37.540;2023-12-20T05:18:34;8.32;;;4.70;;
30862;SDS011;17573;55.922;37.540;2023-12-20T05:21:00;6.75;;;3.53;;
30862;SDS011;17573;55.922;37.540;2023-12-20T05:23:26;4.55;;;4.15;;
30862;SDS011;17573;55.922;37.540;2023-12-20T05:25:52;10.93;;;3.95;;
30862;SDS011;17573;55.922;37.540;2023-12-20T05:28:18;10.85;;;4.10;;
30862;SDS011;17573;55.922;37.540;2023-12-20T05:30:44;6.70;;;4.45;;
30862;SDS011;17573;55.922;37.540;2023-12-20T05:33:10;5.53;;;3.83;;
30862;SDS011;17573;55.922;37.540;2023-12-20T05:35:36;6.93;;;3.83;;
30862;SDS011;17573;55.922;37.540;2023-12-20T05:38:01;4.82;;;3.78;;
30862;SDS011;17573;55.922;37.540;2023-12-20T05:40:27;5.82;;;3.65;;
30862;SDS011;17573;55.922;37.540;2023-12-20T05:42:53;5.93;;;3.63;;
30862;SDS011;17573;55.922;37.540;2023-12-20T05:45:20;6.53;;;4.00;;
30862;SDS011;17573;55.922;37.540;2023-12-20T05:47:46;5.85;;;3.83;;
30862;SDS011;17573;55.922;37.540;2023-12-20T05:50:12;5.63;;;4.50;;
30862;SDS011;17573;55.922;37.540;2023-12-20T05:52:37;10.25;;;4.95;;
30862;SDS011;17573;55.922;37.540;2023-12-20T05:55:03;5.28;;;4.68;;
30862;SDS011;17573;55.922;37.540;2023-12-20T05:57:30;7.40;;;3.90;;
30862;SDS011;17573;55.922;37.540;2023-12-20T05:59:56;4.90;;;4.30;;
30862;SDS011;17573;55.922;37.540;2023-12-20T06:02:22;7.65;;;4.15;;
30862;SDS011;17573;55.922;37.540;2023-12-20T06:04:48;12.35;;;5.28;;
30862;SDS011;17573;55.922;37.540;2023-12-20T06:07:14;11.20;;;4.72;;
30862;SDS011;17573;55.922;37.540;2023-12-20T06:09:41;6.03;;;5.10;;
30862;SDS011;17573;55.922;37.540;2023-12-20T06:12:07;9.13;;;4.70;;
30862;SDS011;17573;55.922;37.540;2023-12-20T06:14:33;6.13;;;5.10;;
30862;SDS011;17573;55.922;37.540;2023-12-20T06:17:00;7.43;;;5.25;;
30862;SDS011;17573;55.922;37.540;2023-12-20T06:19:27;7.80;;;5.30;;
30862;SDS011;17573;55.922;37.540;2023-12-20T06:21:53;6.00;;;4.40;;
30862;SDS011;17573;55.922;37.540;2023-12-20T06:24:19;9.75;;;5.68;;
30862;SDS011;17573;55.922;37.540;2023-12-20T06:26:45;8.80;;;4.78;;
30862;SDS011;17573;55.922;37.540;2023-12-20T06:29:12;8.02;;;4.78;;
30862;SDS011;17573;55.922;37.540;2023-12-20T06:31:37;8.13;;;4.60;;
30862;SDS011;17573;55.922;37.540;2023-12-20T06:34:03;8.63;;;4.93;;
30862;SDS011;17573;55.922;37.540;2023-12-20T06:36:29;6.00;;;5.20;;
30862;SDS011;17573;55.922;37.540;2023-12-20T06:38:55;9.15;;;6.72;;
30862;SDS011;17573;55.922;37.540;2023-12-20T06:41:21;10.77;;;5.35;;
30862;SDS011;17573;55.922;37.540;2023-12-20T06:43:46;13.43;;;6.72;;
30862;SDS011;17573;55.922;37.540;2023-12-20T06:46:12;17.00;;;5.55;;
30862;SDS011;17573;55.922;37.540;2023-12-20T06:48:38;8.60;;;4.68;;
30862;SDS011;17573;55.922;37.540;2023-12-20T06:51:05;11.02;;;5.30;;
30862;SDS011;17573;55.922;37.540;2023-12-20T06:53:31;11.63;;;5.43;;
30862;SDS011;17573;55.922;37.540;2023-12-20T06:55:57;8.88;;;5.30;;
30862;SDS011;17573;55.922;37.540;2023-12-20T06:58:23;7.82;;;6.10;;
30862;SDS011;17573;55.922;37.540;2023-12-20T07:00:50;7.07;;;5.13;;
30862;SDS011;17573;55.922;37.540;2023-12-20T07:03:17;11.13;;;5.75;;
30862;SDS011;17573;55.922;37.540;2023-12-20T07:05:43;9.95;;;6.13;;
30862;SDS011;17573;55.922;37.540;2023-12-20T07:08:09;10.00;;;5.28;;
30862;SDS011;17573;55.922;37.540;2023-12-20T07:10:36;9.15;;;6.10;;
30862;SDS011;17573;55.922;37.540;2023-12-20T07:13:02;8.35;;;5.57;;
30862;SDS011;17573;55.922;37.540;2023-12-20T07:15:28;10.63;;;5.75;;
30862;SDS011;17573;55.922;37.540;2023-12-20T07:17:54;17.80;;;5.93;;
30862;SDS011;17573;55.922;37.540;2023-12-20T07:20:20;10.50;;;6.25;;
30862;SDS011;17573;55.922;37.540;2023-12-20T07:22:46;8.27;;;6.00;;
30862;SDS011;17573;55.922;37.540;2023-12-20T07:25:12;7.05;;;5.43;;
30862;SDS011;17573;55.922;37.540;2023-12-20T07:27:38;7.53;;;5.70;;
30862;SDS011;17573;55.922;37.540;2023-12-20T07:30:04;7.65;;;5.72;;
30862;SDS011;17573;55.922;37.540;2023-12-20T07:32:30;13.93;;;5.88;;
30862;SDS011;17573;55.922;37.540;2023-12-20T07:34:57;6.75;;;5.93;;
30862;SDS011;17573;55.922;37.540;2023-12-20T07:37:24;10.80;;;5.57;;
30862;SDS011;17573;55.922;37.540;2023-12-20T07:39:49;10.35;;;4.97;;
30862;SDS011;17573;55.922;37.540;2023-12-20T07:42:15;6.85;;;4.40;;
30862;SDS011;17573;55.922;37.540;2023-12-20T07:44:41;11.23;;;6.15;;
30862;SDS011;17573;55.922;37.540;2023-12-20T07:47:07;10.35;;;5.53;;
30862;SDS011;17573;55.922;37.540;2023-12-20T07:49:33;9.60;;;5.72;;
30862;SDS011;17573;55.922;37.540;2023-12-20T07:51:59;25.20;;;6.82;;
30862;SDS011;17573;55.922;37.540;2023-12-20T07:54:25;6.13;;;4.40;;
30862;SDS011;17573;55.922;37.540;2023-12-20T07:56:51;6.80;;;5.07;;
30862;SDS011;17573;55.922;37.540;2023-12-20T07:59:16;5.35;;;4.50;;
30862;SDS011;17573;55.922;37.540;2023-12-20T08:01:42;5.88;;;4.88;;
30862;SDS011;17573;55.922;37.540;2023-12-20T08:04:08;5.50;;;4.35;;
30862;SDS011;17573;55.922;37.540;2023-12-20T08:06:34;7.60;;;4.80;;
30862;SDS011;17573;55.922;37.540;2023-12-20T08:09:00;9.27;;;4.50;;
30862;SDS011;17573;55.922;37.540;2023-12-20T08:11:26;9.98;;;3.80;;
30862;SDS011;17573;55.922;37.540;2023-12-20T08:13:52;6.57;;;4.53;;
30862;SDS011;17573;55.922;37.540;2023-12-20T08:16:18;7.68;;;4.22;;
30862;SDS011;17573;55.922;37.540;2023-12-20T08:18:44;6.72;;;4.28;;
30862;SDS011;17573;55.922;37.540;2023-12-20T08:21:10;6.55;;;5.15;;
30862;SDS011;17573;55.922;37.540;2023-12-20T08:23:37;13.07;;;4.50;;
30862;SDS011;17573;55.922;37.540;2023-12-20T08:26:06;6.40;;;4.43;;
30862;SDS011;17573;55.922;37.540;2023-12-20T08:28:32;4.50;;;3.88;;
30862;SDS011;17573;55.922;37.540;2023-12-20T08:30:58;6.70;;;4.43;;
30862;SDS011;17573;55.922;37.540;2023-12-20T08:33:24;4.53;;;3.90;;
30862;SDS011;17573;55.922;37.540;2023-12-20T08:35:51;8.07;;;4.85;;
30862;SDS011;17573;55.922;37.540;2023-12-20T08:38:16;10.82;;;4.65;;
30862;SDS011;17573;55.922;37.540;2023-12-20T08:40:43;17.85;;;4.70;;
30862;SDS011;17573;55.922;37.540;2023-12-20T08:43:10;10.10;;;5.50;;
30862;SDS011;17573;55.922;37.540;2023-12-20T08:45:35;6.25;;;5.57;;
30862;SDS011;17573;55.922;37.540;2023-12-20T08:48:01;7.05;;;4.00;;
30862;SDS011;17573;55.922;37.540;2023-12-20T08:50:28;6.93;;;4.47;;
30862;SDS011;17573;55.922;37.540;2023-12-20T08:52:55;11.50;;;4.78;;
30862;SDS011;17573;55.922;37.540;2023-12-20T08:55:21;8.05;;;4.60;;
30862;SDS011;17573;55.922;37.540;2023-12-20T08:57:46;5.70;;;5.15;;
30862;SDS011;17573;55.922;37.540;2023-12-20T09:00:13;7.85;;;5.60;;
30862;SDS011;17573;55.922;37.540;2023-12-20T09:02:39;15.25;;;4.88;;
30862;SDS011;17573;55.922;37.540;2023-12-20T09:05:05;6.57;;;4.75;;
30862;SDS011;17573;55.922;37.540;2023-12-20T09:07:31;10.07;;;4.72;;
30862;SDS011;17573;55.922;37.540;2023-12-20T09:09:57;6.07;;;4.43;;
30862;SDS011;17573;55.922;37.540;2023-12-20T09:12:24;8.38;;;5.50;;
30862;SDS011;17573;55.922;37.540;2023-12-20T09:14:50;6.88;;;5.78;;
30862;SDS011;17573;55.922;37.540;2023-12-20T09:17:17;6.68;;;4.90;;
30862;SDS011;17573;55.922;37.540;2023-12-20T09:19:43;7.30;;;4.13;;
30862;SDS011;17573;55.922;37.540;2023-12-20T09:22:10;10.55;;;5.03;;
30862;SDS011;17573;55.922;37.540;2023-12-20T09:24:36;5.30;;;4.60;;
30862;SDS011;17573;55.922;37.540;2023-12-20T09:27:02;6.63;;;4.75;;
30862;SDS011;17573;55.922;37.540;2023-12-20T09:29:28;6.07;;;5.00;;
30862;SDS011;17573;55.922;37.540;2023-12-20T09:31:54;5.40;;;4.72;;
30862;SDS011;17573;55.922;37.540;2023-12-20T09:34:20;6.78;;;4.85;;
30862;SDS011;17573;55.922;37.540;2023-12-20T09:36:48;6.30;;;5.43;;
30862;SDS011;17573;55.922;37.540;2023-12-20T09:39:13;12.23;;;5.82;;
30862;SDS011;17573;55.922;37.540;2023-12-20T09:41:42;7.60;;;5.38;;
30862;SDS011;17573;55.922;37.540;2023-12-20T09:44:09;11.27;;;4.65;;
30862;SDS011;17573;55.922;37.540;2023-12-20T09:46:41;7.50;;;5.15;;
30862;SDS011;17573;55.922;37.540;2023-12-20T09:49:10;10.55;;;5.30;;
30862;SDS011;17573;55.922;37.540;2023-12-20T09:51:36;5.63;;;5.03;;
30862;SDS011;17573;55.922;37.540;2023-12-20T09:54:05;7.63;;;5.00;;
30862;SDS011;17573;55.922;37.540;2023-12-20T09:56:31;5.97;;;5.47;;
30862;SDS011;17573;55.922;37.540;2023-12-20T09:58:57;5.72;;;4.50;;
30862;SDS011;17573;55.922;37.540;2023-12-20T10:01:23;6.35;;;4.47;;
30862;SDS011;17573;55.922;37.540;2023-12-20T10:03:50;9.55;;;4.93;;
30862;SDS011;17573;55.922;37.540;2023-12-20T10:06:16;4.43;;;3.95;;
30862;SDS011;17573;55.922;37.540;2023-12-20T10:08:42;5.55;;;4.00;;
30862;SDS011;17573;55.922;37.540;2023-12-20T10:11:08;8.63;;;3.83;;
30862;SDS011;17573;55.922;37.540;2023-12-20T10:13:34;6.00;;;5.30;;
30862;SDS011;17573;55.922;37.540;2023-12-20T10:16:05;4.65;;;4.25;;
30862;SDS011;17573;55.922;37.540;2023-12-20T10:18:31;5.22;;;4.57;;
30862;SDS011;17573;55.922;37.540;2023-12-20T10:20:57;8.02;;;4.18;;
30862;SDS011;17573;55.922;37.540;2023-12-20T10:23:23;5.43;;;4.25;;
30862;SDS011;17573;55.922;37.540;2023-12-20T10:25:59;6.55;;;4.45;;
30862;SDS011;17573;55.922;37.540;2023-12-20T10:28:25;7.72;;;4.63;;
30862;SDS011;17573;55.922;37.540;2023-12-20T10:30:54;7.18;;;4.28;;
30862;SDS011;17573;55.922;37.540;2023-12-20T10:33:24;4.05;;;3.65;;
30862;SDS011;17573;55.922;37.540;2023-12-20T10:35:51;5.00;;;4.50;;
30862;SDS011;17573;55.922;37.540;2023-12-20T10:38:17;5.38;;;4.88;;
30862;SDS011;17573;55.922;37.540;2023-12-20T10:40:43;7.50;;;4.00;;
30862;SDS011;17573;55.922;37.540;2023-12-20T10:43:11;7.32;;;4.65;;
30862;SDS011;17573;55.922;37.540;2023-12-20T10:45:37;4.57;;;3.92;;
30862;SDS011;17573;55.922;37.540;2023-12-20T10:48:03;10.60;;;4.47;;
30862;SDS011;17573;55.922;37.540;2023-12-20T10:50:29;7.63;;;4.22;;
30862;SDS011;17573;55.922;37.540;2023-12-20T10:52:57;7.97;;;3.90;;
30862;SDS011;17573;55.922;37.540;2023-12-20T10:55:23;6.63;;;4.65;;
30862;SDS011;17573;55.922;37.540;2023-12-20T10:58:08;9.93;;;5.38;;
30862;SDS011;17573;55.922;37.540;2023-12-20T11:00:40;5.15;;;4.65;;
30862;SDS011;17573;55.922;37.540;2023-12-20T11:03:09;5.25;;;4.50;;
30862;SDS011;17573;55.922;37.540;2023-12-20T11:05:46;7.90;;;4.57;;
30862;SDS011;17573;55.922;37.540;2023-12-20T11:08:20;8.02;;;3.90;;
30862;SDS011;17573;55.922;37.540;2023-12-20T11:13:34;5.97;;;4.65;;
30862;SDS011;17573;55.922;37.540;2023-12-20T11:16:03;5.43;;;4.93;;
30862;SDS011;17573;55.922;37.540;2023-12-20T11:18:29;4.75;;;4.32;;
30862;SDS011;17573;55.922;37.540;2023-12-20T11:20:59;5.63;;;4.18;;
30862;SDS011;17573;55.922;37.540;2023-12-20T11:23:30;5.22;;;4.68;;
30862;SDS011;17573;55.922;37.540;2023-12-20T11:25:58;5.18;;;4.65;;
30862;SDS011;17573;55.922;37.540;2023-12-20T11:28:24;6.22;;;4.55;;
30862;SDS011;17573;55.922;37.540;2023-12-20T11:30:52;4.13;;;3.42;;
30862;SDS011;17573;55.922;37.540;2023-12-20T11:33:26;5.30;;;3.85;;
30862;SDS011;17573;55.922;37.540;2023-12-20T11:35:55;4.65;;;4.20;;
30862;SDS011;17573;55.922;37.540;2023-12-20T11:38:21;5.38;;;4.32;;
30862;SDS011;17573;55.922;37.540;2023-12-20T11:40:48;5.72;;;4.15;;
30862;SDS011;17573;55.922;37.540;2023-12-20T11:43:29;6.13;;;5.03;;
30862;SDS011;17573;55.922;37.540;2023-12-20T11:46:05;4.28;;;3.47;;
30862;SDS011;17573;55.922;37.540;2023-12-20T11:48:32;5.15;;;4.65;;
30862;SDS011;17573;55.922;37.540;2023-12-20T11:50:59;7.80;;;4.15;;
30862;SDS011;17573;55.922;37.540;2023-12-20T11:53:25;5.05;;;3.92;;
30862;SDS011;17573;55.922;37.540;2023-12-20T11:55:50;6.72;;;4.95;;
30862;SDS011;17573;55.922;37.540;2023-12-20T11:58:17;5.00;;;3.92;;
30862;SDS011;17573;55.922;37.540;2023-12-20T12:00:43;5.82;;;4.55;;
30862;SDS011;17573;55.922;37.540;2023-12-20T12:03:09;6.25;;;4.70;;
30862;SDS011;17573;55.922;37.540;2023-12-20T12:05:35;4.50;;;4.10;;
30862;SDS011;17573;55.922;37.540;2023-12-20T12:08:03;4.93;;;4.15;;
30862;SDS011;17573;55.922;37.540;2023-12-20T12:10:30;4.57;;;4.18;;
30862;SDS011;17573;55.922;37.540;2023-12-20T12:12:56;4.10;;;3.70;;
30862;SDS011;17573;55.922;37.540;2023-12-20T12:15:22;13.93;;;3.63;;
30862;SDS011;17573;55.922;37.540;2023-12-20T12:17:54;8.18;;;4.57;;
30862;SDS011;17573;55.922;37.540;2023-12-20T12:22:57;4.72;;;4.15;;
30862;SDS011;17573;55.922;37.540;2023-12-20T12:25:24;6.32;;;3.97;;
30862;SDS011;17573;55.922;37.540;2023-12-20T12:27:50;4.15;;;3.75;;
30862;SDS011;17573;55.922;37.540;2023-12-20T12:30:17;5.88;;;5.32;;
30862;SDS011;17573;55.922;37.540;2023-12-20T12:32:44;4.18;;;3.63;;
30862;SDS011;17573;55.922;37.540;2023-12-20T12:35:10;8.35;;;4.07;;
30862;SDS011;17573;55.922;37.540;2023-12-20T12:37:39;4.30;;;3.85;;
30862;SDS011;17573;55.922;37.540;2023-12-20T12:40:09;7.13;;;4.60;;
30862;SDS011;17573;55.922;37.540;2023-12-20T12:42:36;5.35;;;3.63;;
30862;SDS011;17573;55.922;37.540;2023-12-20T12:45:03;7.15;;;3.92;;
30862;SDS011;17573;55.922;37.540;2023-12-20T12:47:30;3.55;;;3.25;;
30862;SDS011;17573;55.922;37.540;2023-12-20T12:49:55;5.07;;;3.72;;
30862;SDS011;17573;55.922;37.540;2023-12-20T12:52:21;5.05;;;3.55;;
30862;SDS011;17573;55.922;37.540;2023-12-20T12:54:48;8.30;;;3.53;;
30862;SDS011;17573;55.922;37.540;2023-12-20T12:57:14;6.28;;;4.43;;
30862;SDS011;17573;55.922;37.540;2023-12-20T12:59:41;4.70;;;4.25;;
30862;SDS011;17573;55.922;37.540;2023-12-20T13:02:08;7.22;;;4.25;;
30862;SDS011;17573;55.922;37.540;2023-12-20T13:04:34;4.20;;;3.80;;
30862;SDS011;17573;55.922;37.540;2023-12-20T13:06:59;6.40;;;4.45;;
30862;SDS011;17573;55.922;37.540;2023-12-20T13:09:25;5.32;;;4.35;;
30862;SDS011;17573;55.922;37.540;2023-12-20T13:11:51;6.53;;;3.65;;
30862;SDS011;17573;55.922;37.540;2023-12-20T13:14:17;5.72;;;3.67;;
30862;SDS011;17573;55.922;37.540;2023-12-20T13:16:42;9.70;;;3.97;;
30862;SDS011;17573;55.922;37.540;2023-12-20T13:19:10;5.80;;;4.18;;
30862;SDS011;17573;55.922;37.540;2023-12-20T13:21:35;11.95;;;3.70;;
30862;SDS011;17573;55.922;37.540;2023-12-20T13:24:01;4.18;;;3.35;;
30862;SDS011;17573;55.922;37.540;2023-12-20T13:26:27;3.33;;;3.03;;
30862;SDS011;17573;55.922;37.540;2023-12-20T13:28:53;2.97;;;2.70;;
30862;SDS011;17573;55.922;37.540;2023-12-20T13:31:20;3.38;;;3.08;;
30862;SDS011;17573;55.922;37.540;2023-12-20T13:33:46;4.07;;;3.72;;
30862;SDS011;17573;55.922;37.540;2023-12-20T13:36:12;5.07;;;3.90;;
30862;SDS011;17573;55.922;37.540;2023-12-20T13:38:38;5.40;;;3.53;;
30862;SDS011;17573;55.922;37.540;2023-12-20T13:41:04;6.75;;;2.88;;
30862;SDS011;17573;55.922;37.540;2023-12-20T13:43:33;7.15;;;3.90;;
30862;SDS011;17573;55.922;37.540;2023-12-20T13:46:00;4.47;;;4.10;;
30862;SDS011;17573;55.922;37.540;2023-12-20T13:48:26;9.63;;;4.97;;
30862;SDS011;17573;55.922;37.540;2023-12-20T13:50:51;9.55;;;5.15;;
30862;SDS011;17573;55.922;37.540;2023-12-20T13:53:18;6.65;;;4.53;;
30862;SDS011;17573;55.922;37.540;2023-12-20T13:55:44;7.90;;;4.85;;
30862;SDS011;17573;55.922;37.540;2023-12-20T13:58:10;5.85;;;4.00;;
30862;SDS011;17573;55.922;37.540;2023-12-20T14:00:36;4.72;;;4.00;;
30862;SDS011;17573;55.922;37.540;2023-12-20T14:03:03;14.80;;;4.22;;
30862;SDS011;17573;55.922;37.540;2023-12-20T14:05:29;11.80;;;4.45;;
30862;SDS011;17573;55.922;37.540;2023-12-20T14:07:56;8.95;;;3.20;;
30862;SDS011;17573;55.922;37.540;2023-12-20T14:10:25;8.27;;;4.35;;
30862;SDS011;17573;55.922;37.540;2023-12-20T14:12:54;12.73;;;4.07;;
30862;SDS011;17573;55.922;37.540;2023-12-20T14:15:20;5.32;;;4.07;;
30862;SDS011;17573;55.922;37.540;2023-12-20T14:17:46;4.93;;;3.90;;
30862;SDS011;17573;55.922;37.540;2023-12-20T14:20:12;8.98;;;3.70;;
30862;SDS011;17573;55.922;37.540;2023-12-20T14:22:38;11.40;;;4.28;;
30862;SDS011;17573;55.922;37.540;2023-12-20T14:25:13;5.35;;;3.90;;
30862;SDS011;17573;55.922;37.540;2023-12-20T14:27:39;6.00;;;3.92;;
30862;SDS011;17573;55.922;37.540;2023-12-20T14:30:06;11.13;;;4.55;;
30862;SDS011;17573;55.922;37.540;2023-12-20T14:32:34;13.45;;;3.63;;
30862;SDS011;17573;55.922;37.540;2023-12-20T14:35:02;10.82;;;3.83;;